Time;durP1;ratioP1;P1;durP2;ratioP2;P2;SDS_P1;SDS_P2;PMS_P1;PMS_P2;Temp;Humidity;BMP_temperature;BMP_pressure;BME280_temperature;BME280_humidity;BME280_pressure;Samples;Min_cycle;Max_cycle;Signal;HPM_P1;HPM_P2
2023/03/09 00:00:55;;;;;;;1.45;1.30;;;9.60;99.90;;;;;;5005748;28;20461;-74
2023/03/09 00:03:22;;;;;;;5.95;1.42;;;9.60;99.90;;;;;;5000080;28;20218;-74
2023/03/09 00:05:53;;;;;;;2.55;1.35;;;9.60;99.90;;;;;;4993358;28;20613;-73
2023/03/09 00:08:21;;;;;;;1.00;0.90;;;9.60;99.90;;;;;;4988992;28;20210;-74
2023/03/09 00:10:51;;;;;;;1.25;1.10;;;9.60;99.90;;;;;;4988928;28;20203;-73
2023/03/09 00:13:18;;;;;;;1.63;1.10;;;9.70;99.90;;;;;;4988575;28;20219;-74
2023/03/09 00:15:49;;;;;;;2.47;1.27;;;9.60;99.90;;;;;;4995775;28;20206;-74
2023/03/09 00:18:16;;;;;;;2.25;1.40;;;9.60;99.90;;;;;;5008514;28;20218;-74
2023/03/09 00:20:43;;;;;;;2.75;1.23;;;9.50;99.90;;;;;;5008496;28;20213;-73
2023/03/09 00:23:11;;;;;;;1.27;0.90;;;9.50;99.90;;;;;;5008640;28;20230;-74
2023/03/09 00:25:38;;;;;;;2.17;1.38;;;9.60;99.90;;;;;;5008112;28;20226;-73
2023/03/09 00:28:06;;;;;;;1.02;0.93;;;9.60;99.90;;;;;;5007602;28;20202;-73
2023/03/09 00:30:33;;;;;;;3.40;1.15;;;9.50;99.90;;;;;;5007313;28;20233;-74
2023/03/09 00:33:00;;;;;;;1.25;1.00;;;9.50;99.90;;;;;;5007076;28;20226;-74
2023/03/09 00:35:26;;;;;;;1.27;1.00;;;9.40;99.90;;;;;;5007344;28;20210;-74
2023/03/09 00:37:53;;;;;;;1.83;1.20;;;9.40;99.90;;;;;;5007825;28;20213;-73
2023/03/09 00:40:20;;;;;;;1.10;0.80;;;9.40;99.90;;;;;;5007289;28;20623;-73
2023/03/09 00:42:47;;;;;;;0.90;0.70;;;9.50;99.90;;;;;;5008064;28;20210;-73
2023/03/09 00:45:15;;;;;;;1.88;0.90;;;9.40;99.90;;;;;;5007276;28;20701;-73
2023/03/09 00:47:42;;;;;;;1.17;1.08;;;9.50;99.90;;;;;;5007411;28;20264;-73
2023/03/09 00:50:10;;;;;;;0.80;0.70;;;9.40;99.90;;;;;;5007447;28;20209;-73
2023/03/09 00:52:37;;;;;;;1.00;0.88;;;9.50;99.90;;;;;;5006811;28;20209;-73
2023/03/09 00:55:04;;;;;;;1.20;0.73;;;9.50;99.90;;;;;;4997228;28;20718;-73
2023/03/09 00:57:31;;;;;;;0.70;0.63;;;9.40;99.90;;;;;;4987123;28;20214;-73
2023/03/09 00:59:58;;;;;;;0.70;0.60;;;9.40;99.90;;;;;;5003681;28;20214;-73
2023/03/09 01:02:27;;;;;;;0.80;0.70;;;9.30;99.90;;;;;;4986676;28;20215;-73
2023/03/09 01:04:53;;;;;;;0.80;0.70;;;9.30;99.90;;;;;;4987146;28;20227;-73
2023/03/09 01:07:22;;;;;;;2.00;0.68;;;9.20;99.90;;;;;;4987322;28;20661;-73
2023/03/09 01:09:48;;;;;;;0.80;0.70;;;9.10;99.90;;;;;;4987208;28;20593;-73
2023/03/09 01:12:15;;;;;;;1.40;0.70;;;9.10;99.90;;;;;;4987359;28;20205;-73
2023/03/09 01:14:42;;;;;;;5.07;0.98;;;9.10;99.90;;;;;;4986883;28;20235;-73
2023/03/09 01:17:08;;;;;;;1.70;0.80;;;9.00;99.90;;;;;;4999178;28;20598;-73
2023/03/09 01:19:37;;;;;;;0.80;0.70;;;9.10;99.90;;;;;;5038600;23;20229;-70
2023/03/09 01:22:03;;;;;;;0.80;0.70;;;9.00;99.90;;;;;;4953646;28;20209;-70
2023/03/09 01:24:30;;;;;;;0.80;0.60;;;8.90;99.90;;;;;;4953275;28;20233;-70
2023/03/09 01:26:57;;;;;;;0.80;0.60;;;8.90;99.90;;;;;;4961456;28;20235;-69
2023/03/09 01:29:23;;;;;;;0.90;0.70;;;8.80;99.90;;;;;;4953617;28;20211;-69
2023/03/09 01:31:50;;;;;;;0.82;0.68;;;8.80;99.90;;;;;;4952520;28;20234;-70
2023/03/09 01:34:17;;;;;;;1.20;0.70;;;8.80;99.90;;;;;;4953094;28;20256;-70
2023/03/09 01:36:45;;;;;;;1.00;0.80;;;8.80;99.90;;;;;;4953249;28;20197;-68
2023/03/09 01:39:12;;;;;;;1.75;0.70;;;8.80;99.90;;;;;;4952646;28;20204;-69
2023/03/09 01:41:38;;;;;;;0.80;0.70;;;8.80;99.90;;;;;;4953155;28;20200;-69
2023/03/09 01:44:05;;;;;;;0.70;0.60;;;8.80;99.90;;;;;;4952967;28;20229;-70
2023/03/09 01:46:48;;;;;;;1.60;0.70;;;8.80;99.90;;;;;;4953119;28;20220;-69
2023/03/09 01:49:31;;;;;;;0.90;0.70;;;8.70;99.90;;;;;;4953225;28;20205;-70
2023/03/09 01:52:04;;;;;;;0.80;0.70;;;8.70;99.90;;;;;;4952982;28;20204;-70
2023/03/09 01:54:36;;;;;;;0.80;0.80;;;8.60;99.90;;;;;;4952768;28;20304;-69
2023/03/09 01:57:09;;;;;;;0.80;0.60;;;8.60;99.90;;;;;;4952991;28;20201;-69
2023/03/09 01:59:37;;;;;;;4.20;0.80;;;8.50;99.90;;;;;;4953125;28;20216;-69
2023/03/09 02:02:04;;;;;;;0.80;0.70;;;8.50;99.90;;;;;;4952644;28;20204;-70
2023/03/09 02:04:36;;;;;;;1.00;0.70;;;8.50;99.90;;;;;;4952342;28;20232;-68
2023/03/09 02:07:05;;;;;;;1.70;0.88;;;8.50;99.90;;;;;;4952612;28;20224;-70
2023/03/09 02:09:38;;;;;;;0.70;0.60;;;8.40;99.90;;;;;;4952747;28;20204;-69
2023/03/09 02:12:07;;;;;;;0.70;0.60;;;8.40;99.90;;;;;;4952556;28;20224;-70
2023/03/09 02:14:34;;;;;;;0.90;0.70;;;8.30;99.90;;;;;;4952174;28;20220;-69
2023/03/09 02:17:00;;;;;;;0.80;0.70;;;8.30;99.90;;;;;;4952420;28;20204;-70
2023/03/09 02:19:48;;;;;;;0.77;0.68;;;8.20;99.90;;;;;;4952561;28;20216;-69
2023/03/09 02:22:16;;;;;;;0.80;0.70;;;8.20;99.90;;;;;;4952475;28;20204;-70
2023/03/09 02:24:51;;;;;;;0.70;0.63;;;8.10;99.90;;;;;;4951827;28;20590;-69
2023/03/09 02:27:21;;;;;;;0.70;0.60;;;8.10;99.90;;;;;;4952455;28;20230;-70
2023/03/09 02:29:48;;;;;;;0.90;0.75;;;8.00;99.90;;;;;;4952188;28;20204;-70
2023/03/09 02:32:16;;;;;;;0.80;0.70;;;8.00;99.90;;;;;;4951552;28;20267;-69
2023/03/09 02:34:42;;;;;;;1.13;0.80;;;7.90;99.90;;;;;;4951751;28;20247;-70
2023/03/09 02:37:28;;;;;;;0.90;0.73;;;8.00;99.90;;;;;;4952153;28;20201;-67
2023/03/09 02:39:57;;;;;;;1.33;0.70;;;8.00;99.90;;;;;;4952150;28;20205;-69
2023/03/09 02:42:26;;;;;;;1.65;0.70;;;8.00;99.90;;;;;;4952215;28;20235;-70
2023/03/09 02:44:53;;;;;;;0.70;0.60;;;8.00;99.90;;;;;;4952196;28;20248;-70
2023/03/09 02:47:22;;;;;;;0.80;0.60;;;8.00;99.90;;;;;;4952322;28;20220;-70
2023/03/09 02:49:49;;;;;;;2.45;0.80;;;8.00;99.90;;;;;;4952168;28;20204;-70
2023/03/09 02:52:16;;;;;;;1.25;0.80;;;8.10;99.90;;;;;;4952181;28;22860;-70
2023/03/09 02:54:43;;;;;;;0.90;0.88;;;8.10;99.90;;;;;;4950931;28;20220;-70
2023/03/09 02:57:10;;;;;;;0.80;0.70;;;8.10;99.90;;;;;;4961816;28;20683;-70
2023/03/09 02:59:38;;;;;;;0.70;0.60;;;8.10;99.90;;;;;;4971549;28;20211;-69
2023/03/09 03:02:05;;;;;;;1.25;0.60;;;8.20;99.90;;;;;;4971189;28;20523;-70
2023/03/09 03:04:32;;;;;;;1.10;0.80;;;8.20;99.90;;;;;;4970975;28;20234;-69
2023/03/09 03:06:59;;;;;;;0.90;0.80;;;8.20;99.90;;;;;;4971115;28;20243;-70
2023/03/09 03:09:26;;;;;;;0.90;0.70;;;8.30;99.90;;;;;;4971394;28;20203;-70
2023/03/09 03:11:53;;;;;;;1.00;0.80;;;8.30;99.90;;;;;;4971150;28;20258;-70
2023/03/09 03:14:19;;;;;;;0.80;0.80;;;8.40;99.90;;;;;;4970725;28;20270;-70
2023/03/09 03:16:47;;;;;;;0.90;0.73;;;8.40;99.90;;;;;;4971209;28;20199;-70
2023/03/09 03:19:14;;;;;;;0.90;0.70;;;8.50;99.90;;;;;;4971113;28;20211;-70
2023/03/09 03:21:41;;;;;;;1.55;1.00;;;8.50;99.90;;;;;;4971156;28;20231;-70
2023/03/09 03:24:08;;;;;;;0.80;0.70;;;8.50;99.90;;;;;;4970520;28;20231;-70
2023/03/09 03:26:35;;;;;;;0.80;0.70;;;8.60;99.90;;;;;;4970791;28;20722;-70
2023/03/09 03:29:02;;;;;;;1.30;0.90;;;8.60;99.90;;;;;;4970647;28;20259;-70
2023/03/09 03:31:28;;;;;;;1.25;0.90;;;8.60;99.90;;;;;;4970571;28;20723;-70
2023/03/09 03:33:56;;;;;;;1.05;0.80;;;8.70;99.90;;;;;;4970911;28;20231;-70
2023/03/09 03:36:23;;;;;;;0.70;0.60;;;8.70;99.90;;;;;;4971077;28;20542;-69
2023/03/09 03:38:50;;;;;;;1.10;0.70;;;8.70;99.90;;;;;;4970963;28;20200;-69
2023/03/09 03:41:17;;;;;;;1.58;0.70;;;8.70;99.90;;;;;;4971035;28;20220;-69
2023/03/09 03:43:43;;;;;;;0.70;0.60;;;8.70;99.90;;;;;;4970738;28;20224;-68
2023/03/09 03:46:10;;;;;;;0.90;0.75;;;8.60;99.90;;;;;;4970356;28;20227;-69
2023/03/09 03:48:37;;;;;;;0.90;0.80;;;8.60;99.90;;;;;;4971099;28;20207;-69
2023/03/09 03:51:06;;;;;;;0.90;0.70;;;8.60;99.90;;;;;;4970767;28;20235;-68
2023/03/09 03:53:33;;;;;;;1.10;0.90;;;8.60;99.90;;;;;;4970997;28;20236;-69
2023/03/09 03:56:00;;;;;;;0.77;0.70;;;8.50;99.90;;;;;;4970386;28;20235;-68
2023/03/09 03:58:27;;;;;;;0.77;0.68;;;8.50;99.90;;;;;;4952089;28;20212;-68
2023/03/09 04:00:53;;;;;;;0.70;0.60;;;8.50;99.90;;;;;;4951591;28;20208;-69
2023/03/09 04:03:20;;;;;;;0.80;0.70;;;8.50;99.90;;;;;;4951429;28;20224;-67
2023/03/09 04:05:47;;;;;;;1.88;0.75;;;8.50;99.90;;;;;;4951373;28;20205;-68
2023/03/09 04:08:15;;;;;;;2.50;1.20;;;8.50;99.90;;;;;;4956934;28;20212;-69
2023/03/09 04:10:42;;;;;;;1.00;0.80;;;8.40;99.90;;;;;;4974216;28;20675;-69
2023/03/09 04:13:09;;;;;;;1.98;1.10;;;8.40;99.90;;;;;;4973950;28;20230;-68
2023/03/09 04:15:36;;;;;;;2.13;1.20;;;8.40;99.90;;;;;;4974023;28;20212;-68
2023/03/09 04:18:03;;;;;;;2.75;1.23;;;8.40;99.90;;;;;;4973902;28;20553;-68
2023/03/09 04:20:30;;;;;;;1.00;0.88;;;8.40;99.90;;;;;;4974152;28;20667;-68
2023/03/09 04:22:57;;;;;;;1.20;0.85;;;8.40;99.90;;;;;;4973548;28;20729;-68
2023/03/09 04:25:25;;;;;;;2.17;1.42;;;8.40;99.90;;;;;;4973642;28;20199;-68
2023/03/09 04:27:52;;;;;;;1.60;1.10;;;8.40;99.90;;;;;;4973696;28;20228;-68
2023/03/09 04:30:20;;;;;;;3.28;0.95;;;8.40;99.90;;;;;;4973572;28;20204;-69
2023/03/09 04:32:47;;;;;;;2.13;1.20;;;8.40;99.90;;;;;;4972620;28;20211;-69
2023/03/09 04:35:17;;;;;;;2.63;1.27;;;8.40;99.90;;;;;;4968735;28;20200;-69
2023/03/09 04:37:44;;;;;;;3.30;1.25;;;8.40;99.90;;;;;;4973496;28;20866;-70
2023/03/09 04:40:12;;;;;;;1.42;1.10;;;8.40;99.90;;;;;;4969606;28;20607;-69
2023/03/09 04:42:40;;;;;;;3.03;1.30;;;8.40;99.90;;;;;;4973387;28;20199;-69
2023/03/09 04:45:08;;;;;;;2.70;1.15;;;8.40;99.90;;;;;;4968772;28;20215;-69
2023/03/09 04:47:35;;;;;;;2.75;1.33;;;8.40;99.90;;;;;;4954003;28;20719;-69
2023/03/09 04:50:01;;;;;;;3.28;1.58;;;8.40;99.90;;;;;;4953405;28;20212;-68
2023/03/09 04:52:28;;;;;;;3.25;1.67;;;8.30;99.90;;;;;;4962780;28;20212;-68
2023/03/09 04:54:55;;;;;;;1.42;1.30;;;8.40;99.90;;;;;;4959334;28;20227;-67
2023/03/09 04:57:22;;;;;;;3.58;1.63;;;8.40;99.90;;;;;;4968784;28;20224;-68
2023/03/09 04:59:50;;;;;;;4.75;1.45;;;8.40;99.90;;;;;;4951398;28;20211;-68
2023/03/09 05:02:16;;;;;;;2.38;1.17;;;8.40;99.90;;;;;;4953268;28;20212;-68
2023/03/09 05:04:43;;;;;;;3.78;1.35;;;8.40;99.90;;;;;;4966361;28;20220;-68
2023/03/09 05:07:10;;;;;;;1.13;1.02;;;8.30;99.90;;;;;;4972776;28;20224;-68
2023/03/09 05:09:37;;;;;;;6.03;1.52;;;8.30;99.90;;;;;;4972517;28;20587;-68
2023/03/09 05:12:05;;;;;;;2.33;1.48;;;8.40;99.90;;;;;;4972389;28;20230;-68
2023/03/09 05:14:32;;;;;;;5.35;1.83;;;8.30;99.90;;;;;;4972415;28;20584;-70
2023/03/09 05:17:00;;;;;;;4.97;1.38;;;8.30;99.90;;;;;;4972140;28;20251;-67
2023/03/09 05:19:27;;;;;;;2.03;1.38;;;8.30;99.90;;;;;;4972488;28;20243;-68
2023/03/09 05:21:54;;;;;;;1.88;1.70;;;8.30;99.90;;;;;;4954696;28;20201;-68
2023/03/09 05:24:21;;;;;;;4.50;1.52;;;8.30;99.90;;;;;;4971187;28;20590;-68
2023/03/09 05:26:47;;;;;;;3.60;1.43;;;8.40;99.90;;;;;;4970909;28;20555;-69
2023/03/09 05:29:14;;;;;;;1.90;1.33;;;8.40;99.90;;;;;;4965379;28;20466;-70
2023/03/09 05:31:41;;;;;;;3.22;1.40;;;8.50;99.90;;;;;;4966248;28;20205;-69
2023/03/09 05:34:09;;;;;;;1.73;1.02;;;8.50;99.90;;;;;;4968095;28;20714;-69
2023/03/09 05:36:36;;;;;;;3.08;1.58;;;8.60;99.90;;;;;;4951543;28;20200;-69
2023/03/09 05:39:04;;;;;;;4.20;1.55;;;8.60;99.90;;;;;;4961934;28;20227;-70
2023/03/09 05:41:31;;;;;;;4.60;1.80;;;8.60;99.90;;;;;;4968236;28;20259;-70
2023/03/09 05:44:00;;;;;;;3.17;1.40;;;8.60;99.90;;;;;;4952639;28;20235;-69
2023/03/09 05:46:26;;;;;;;6.85;1.60;;;8.60;99.90;;;;;;4964914;28;20214;-70
2023/03/09 05:48:53;;;;;;;2.38;1.23;;;8.60;99.90;;;;;;4972413;28;20212;-69
2023/03/09 05:51:22;;;;;;;1.88;1.38;;;8.60;99.90;;;;;;4973017;28;20207;-70
2023/03/09 05:53:49;;;;;;;4.35;1.42;;;8.70;99.90;;;;;;4963494;28;20223;-69
2023/03/09 05:56:15;;;;;;;4.15;1.60;;;8.70;99.90;;;;;;4972092;28;20605;-69
2023/03/09 05:58:42;;;;;;;2.45;1.45;;;8.70;99.90;;;;;;4972313;28;20212;-69
2023/03/09 06:01:18;;;;;;;5.55;1.92;;;8.70;99.90;;;;;;4954588;28;20208;-69
2023/03/09 06:03:44;;;;;;;2.10;1.40;;;8.70;99.90;;;;;;4952590;28;20661;-69
2023/03/09 06:06:11;;;;;;;3.22;1.20;;;8.70;99.90;;;;;;4952494;28;20208;-69
2023/03/09 06:08:40;;;;;;;2.15;1.40;;;8.70;99.90;;;;;;4952715;28;20577;-70
2023/03/09 06:11:07;;;;;;;4.88;1.55;;;8.60;99.90;;;;;;4970023;28;20204;-70
2023/03/09 06:13:33;;;;;;;1.67;1.30;;;8.60;99.90;;;;;;4972013;28;20773;-69
2023/03/09 06:16:03;;;;;;;2.47;1.25;;;8.60;99.90;;;;;;4971533;28;20211;-69
2023/03/09 06:18:29;;;;;;;4.40;1.75;;;8.50;99.90;;;;;;4972162;28;20264;-69
2023/03/09 06:21:00;;;;;;;2.78;1.45;;;8.50;99.90;;;;;;4971953;28;20592;-69
2023/03/09 06:23:27;;;;;;;3.33;1.58;;;8.50;99.90;;;;;;4971767;28;20227;-69
2023/03/09 06:25:55;;;;;;;2.75;1.60;;;8.50;99.90;;;;;;4963679;28;20219;-70
2023/03/09 06:28:21;;;;;;;3.83;1.70;;;8.50;99.90;;;;;;4961920;28;20582;-69
2023/03/09 06:30:48;;;;;;;2.63;1.52;;;8.50;99.90;;;;;;4959070;28;20199;-69
2023/03/09 06:33:15;;;;;;;4.28;1.17;;;8.50;99.90;;;;;;4959944;28;20225;-70
2023/03/09 06:35:42;;;;;;;3.20;1.80;;;8.50;99.90;;;;;;4968365;28;20203;-70
2023/03/09 06:38:09;;;;;;;1.35;1.15;;;8.40;99.90;;;;;;4970245;28;20204;-70
2023/03/09 06:40:35;;;;;;;2.72;1.50;;;8.40;99.90;;;;;;4965638;28;20209;-70
2023/03/09 06:43:03;;;;;;;1.55;1.15;;;8.40;99.90;;;;;;4955510;28;20228;-70
2023/03/09 06:45:30;;;;;;;6.68;1.13;;;8.30;99.90;;;;;;4963416;28;20223;-70
2023/03/09 06:47:58;;;;;;;3.30;1.48;;;8.40;99.90;;;;;;4971348;28;20223;-70
2023/03/09 06:50:26;;;;;;;1.63;1.25;;;8.30;99.90;;;;;;4959953;28;20203;-70
2023/03/09 06:52:53;;;;;;;1.80;1.35;;;8.40;99.90;;;;;;4967636;28;20298;-69
2023/03/09 06:55:20;;;;;;;1.65;0.93;;;8.50;99.90;;;;;;4959429;28;20204;-70
2023/03/09 06:57:46;;;;;;;1.90;1.20;;;8.50;99.90;;;;;;4966872;28;20204;-69
2023/03/09 07:00:16;;;;;;;2.33;1.92;;;8.60;99.90;;;;;;4971548;28;20709;-70
2023/03/09 07:02:42;;;;;;;1.73;1.17;;;8.60;99.90;;;;;;4971376;28;20586;-69
2023/03/09 07:05:10;;;;;;;3.47;1.30;;;8.60;99.90;;;;;;4963083;28;20211;-69
2023/03/09 07:07:37;;;;;;;2.95;1.35;;;8.60;99.90;;;;;;4966138;28;20227;-70
2023/03/09 07:10:04;;;;;;;2.83;1.67;;;8.60;99.90;;;;;;4959988;28;20212;-70
2023/03/09 07:12:30;;;;;;;4.85;1.33;;;8.60;99.90;;;;;;4964515;28;20204;-69
2023/03/09 07:14:57;;;;;;;2.83;1.52;;;8.70;99.90;;;;;;4970915;28;20208;-69
2023/03/09 07:17:25;;;;;;;3.78;1.30;;;8.80;99.90;;;;;;4967897;28;20196;-69
2023/03/09 07:19:52;;;;;;;3.63;1.20;;;9.10;99.90;;;;;;5074392;23;20246;-73
2023/03/09 07:22:19;;;;;;;2.00;1.33;;;9.70;99.90;;;;;;5008624;28;20572;-73
2023/03/09 07:24:46;;;;;;;2.67;1.20;;;10.50;99.90;;;;;;4980779;28;20234;-73
2023/03/09 07:27:13;;;;;;;2.80;1.35;;;10.90;99.90;;;;;;4984225;28;20227;-73
2023/03/09 07:29:40;;;;;;;1.52;1.02;;;11.00;99.90;;;;;;4986909;28;20206;-73
2023/03/09 07:32:07;;;;;;;2.85;1.20;;;11.10;99.90;;;;;;4989387;28;20369;-73
2023/03/09 07:34:35;;;;;;;3.13;1.33;;;11.30;99.90;;;;;;4974282;28;20227;-73
2023/03/09 07:37:02;;;;;;;1.95;1.50;;;11.90;99.90;;;;;;4985999;28;20271;-74
2023/03/09 07:39:29;;;;;;;2.90;1.52;;;12.60;99.90;;;;;;4977789;28;20592;-74
2023/03/09 07:41:56;;;;;;;3.42;1.45;;;13.20;99.90;;;;;;4988777;28;20238;-74
2023/03/09 07:44:23;;;;;;;2.78;1.20;;;13.80;99.90;;;;;;4989162;28;20233;-74
2023/03/09 07:46:50;;;;;;;2.07;1.87;;;14.00;99.90;;;;;;4998874;28;20203;-74
2023/03/09 07:49:18;;;;;;;5.13;2.70;;;14.30;99.90;;;;;;4998020;28;20889;-74
2023/03/09 07:51:46;;;;;;;2.60;1.13;;;14.40;99.90;;;;;;4997983;28;20477;-74
2023/03/09 07:54:14;;;;;;;2.60;1.20;;;14.60;99.90;;;;;;4996249;28;20485;-73
2023/03/09 07:56:41;;;;;;;1.90;1.00;;;14.50;99.90;;;;;;4997301;28;20896;-73
2023/03/09 07:59:14;;;;;;;1.37;1.00;;;14.10;99.90;;;;;;4996335;28;20865;-73
2023/03/09 08:01:41;;;;;;;1.83;1.10;;;14.20;99.90;;;;;;4996041;28;20462;-74
2023/03/09 08:04:07;;;;;;;3.30;1.20;;;14.10;99.90;;;;;;4994883;28;20520;-74
2023/03/09 08:06:37;;;;;;;2.23;1.10;;;14.00;99.90;;;;;;4994022;28;20840;-73
2023/03/09 08:09:06;;;;;;;2.15;1.10;;;13.40;99.90;;;;;;4981586;28;20486;-72
2023/03/09 08:11:33;;;;;;;1.92;1.20;;;12.90;99.90;;;;;;4988955;28;20199;-72
2023/03/09 08:14:00;;;;;;;3.17;1.00;;;12.60;99.90;;;;;;4994674;28;20631;-72
2023/03/09 08:16:27;;;;;;;3.20;1.40;;;12.50;99.90;;;;;;4986089;28;20310;-72
2023/03/09 08:18:54;;;;;;;2.13;1.02;;;13.00;99.90;;;;;;4993993;28;20213;-72
2023/03/09 08:21:21;;;;;;;2.28;1.00;;;13.90;99.90;;;;;;4991197;28;20235;-72
2023/03/09 08:23:48;;;;;;;2.20;1.10;;;14.60;99.90;;;;;;4989064;28;20223;-72
2023/03/09 08:26:17;;;;;;;4.17;1.60;;;14.40;99.90;;;;;;4993570;28;20494;-72
2023/03/09 08:28:45;;;;;;;1.67;1.10;;;14.30;99.90;;;;;;4981662;28;20899;-72
2023/03/09 08:31:12;;;;;;;1.50;1.00;;;14.80;99.90;;;;;;4977749;28;20467;-72
2023/03/09 08:33:39;;;;;;;1.63;1.20;;;15.10;99.90;;;;;;4985797;28;20485;-72
2023/03/09 08:36:15;;;;;;;1.27;0.90;;;15.50;99.90;;;;;;4986138;28;20502;-72
2023/03/09 08:38:42;;;;;;;2.77;1.10;;;16.30;99.90;;;;;;4992116;28;20466;-72
2023/03/09 08:41:09;;;;;;;1.40;1.20;;;16.00;99.90;;;;;;4977309;28;20463;-73
2023/03/09 08:43:37;;;;;;;1.20;0.80;;;15.20;99.90;;;;;;4993175;28;20488;-72
2023/03/09 08:46:04;;;;;;;3.60;1.20;;;14.20;99.90;;;;;;4977266;28;20463;-72
2023/03/09 08:48:31;;;;;;;1.53;1.03;;;13.70;99.90;;;;;;4992714;28;20488;-72
2023/03/09 08:51:00;;;;;;;1.13;0.90;;;13.60;99.90;;;;;;4985361;28;20493;-72
2023/03/09 08:53:27;;;;;;;1.83;1.10;;;13.10;99.90;;;;;;4992212;28;20492;-73
2023/03/09 08:55:53;;;;;;;1.37;1.10;;;13.60;99.90;;;;;;4985680;28;20467;-72
2023/03/09 08:58:20;;;;;;;1.40;1.13;;;13.90;99.90;;;;;;4982407;28;20466;-72
2023/03/09 09:00:48;;;;;;;1.73;0.93;;;13.70;99.90;;;;;;4988483;28;20470;-73
2023/03/09 09:03:15;;;;;;;3.20;1.20;;;13.60;99.90;;;;;;4992688;28;20490;-72
2023/03/09 09:05:42;;;;;;;2.23;1.20;;;13.80;99.90;;;;;;4991815;28;20455;-73
2023/03/09 09:08:09;;;;;;;3.50;1.40;;;14.30;99.90;;;;;;4979508;28;20864;-73
2023/03/09 09:10:39;;;;;;;2.43;1.93;;;14.30;99.90;;;;;;4987772;28;20209;-73
2023/03/09 09:13:06;;;;;;;2.30;1.33;;;13.70;99.90;;;;;;4981676;28;20541;-73
2023/03/09 09:15:33;;;;;;;1.23;0.80;;;13.10;99.90;;;;;;4983775;28;20467;-72
2023/03/09 09:18:01;;;;;;;1.40;0.90;;;12.60;99.90;;;;;;4976495;28;20466;-73
2023/03/09 09:20:28;;;;;;;3.00;1.00;;;12.20;99.90;;;;;;4974884;28;20582;-73
2023/03/09 09:22:54;;;;;;;1.80;0.93;;;11.80;99.90;;;;;;4975542;28;20228;-73
2023/03/09 09:25:21;;;;;;;1.75;1.00;;;11.40;99.90;;;;;;4976427;28;20200;-73
2023/03/09 09:27:50;;;;;;;1.10;0.90;;;11.20;99.90;;;;;;4976377;28;20311;-73
2023/03/09 09:30:17;;;;;;;4.63;1.02;;;11.20;99.90;;;;;;4976862;28;20215;-73
2023/03/09 09:32:44;;;;;;;2.22;1.05;;;11.50;99.90;;;;;;4978022;28;20230;-73
2023/03/09 09:35:14;;;;;;;2.92;1.30;;;12.00;99.90;;;;;;4978307;28;20211;-73
2023/03/09 09:37:41;;;;;;;1.70;0.90;;;12.70;99.90;;;;;;4994861;28;20285;-74
2023/03/09 09:40:12;;;;;;;2.10;1.38;;;13.20;99.90;;;;;;4999891;28;20246;-73
2023/03/09 09:42:42;;;;;;;1.63;1.10;;;13.40;99.90;;;;;;4992226;28;20695;-72
2023/03/09 09:45:29;;;;;;;1.05;0.88;;;13.10;99.90;;;;;;4995918;28;20462;-71
2023/03/09 09:47:59;;;;;;;3.72;1.13;;;12.90;99.90;;;;;;4979904;28;20223;-73
2023/03/09 09:50:41;;;;;;;1.45;0.80;;;12.80;99.90;;;;;;4981517;28;20207;-73
2023/03/09 09:53:17;;;;;;;1.50;0.80;;;12.70;99.90;;;;;;4995875;28;20262;-72
2023/03/09 09:55:45;;;;;;;2.03;0.98;;;12.50;99.90;;;;;;4981537;28;20218;-73
2023/03/09 09:58:23;;;;;;;0.85;0.70;;;12.20;99.90;;;;;;4976399;28;20220;-73
2023/03/09 10:00:53;;;;;;;2.70;0.93;;;11.90;99.90;;;;;;4975511;28;20210;-72
2023/03/09 10:03:22;;;;;;;2.38;1.30;;;11.70;99.90;;;;;;4975390;28;20223;-73
2023/03/09 10:05:56;;;;;;;1.55;1.15;;;11.80;99.90;;;;;;4974367;28;20204;-73
2023/03/09 10:08:28;;;;;;;1.20;1.08;;;12.10;99.90;;;;;;4975868;28;20216;-72
2023/03/09 10:10:59;;;;;;;1.25;0.93;;;13.00;99.90;;;;;;4983804;28;20203;-72
2023/03/09 10:13:33;;;;;;;1.23;1.00;;;14.10;99.90;;;;;;4994979;28;20230;-72
2023/03/09 10:16:06;;;;;;;1.73;0.90;;;14.70;99.90;;;;;;4994653;28;20485;-72
2023/03/09 10:18:36;;;;;;;2.33;1.70;;;13.90;99.90;;;;;;4993540;28;20462;-72
2023/03/09 10:21:12;;;;;;;1.27;1.00;;;12.90;99.90;;;;;;4984628;28;20459;-72
2023/03/09 10:23:43;;;;;;;2.65;0.95;;;12.30;99.90;;;;;;4973470;28;20486;-72
2023/03/09 10:26:35;;;;;;;1.10;0.90;;;11.70;99.90;;;;;;4990497;28;20213;-72
2023/03/09 10:29:09;;;;;;;1.85;1.08;;;11.60;99.90;;;;;;4976285;28;20219;-72
2023/03/09 10:31:41;;;;;;;2.35;1.30;;;11.60;99.90;;;;;;4973151;28;20211;-72
2023/03/09 10:34:17;;;;;;;2.40;1.13;;;11.60;99.90;;;;;;4972116;28;20224;-72
2023/03/09 10:36:56;;;;;;;1.27;1.00;;;11.50;99.90;;;;;;4972816;28;20207;-72
2023/03/09 10:39:24;;;;;;;1.10;0.90;;;12.10;99.90;;;;;;4972314;28;20199;-72
2023/03/09 10:41:52;;;;;;;2.08;1.00;;;13.40;99.90;;;;;;4972639;28;20279;-72
2023/03/09 10:44:20;;;;;;;1.17;0.90;;;14.80;99.90;;;;;;4971809;28;20232;-72
2023/03/09 10:46:58;;;;;;;1.20;0.90;;;15.70;99.90;;;;;;4973454;28;20222;-72
2023/03/09 10:49:25;;;;;;;1.47;0.97;;;16.60;99.90;;;;;;4972328;28;20898;-72
2023/03/09 10:52:00;;;;;;;1.40;0.93;;;16.90;99.90;;;;;;4971566;28;20467;-72
2023/03/09 10:54:31;;;;;;;1.80;1.10;;;17.50;99.90;;;;;;4969792;28;20915;-71
2023/03/09 10:56:59;;;;;;;3.27;1.20;;;18.50;99.90;;;;;;4987243;28;20478;-72
2023/03/09 10:59:26;;;;;;;2.50;0.97;;;19.30;99.20;;;;;;4990383;28;20466;-72
2023/03/09 11:01:56;;;;;;;2.03;1.20;;;19.10;98.00;;;;;;4990833;28;20462;-72
2023/03/09 11:04:43;;;;;;;1.33;0.97;;;18.70;98.30;;;;;;4989823;28;21355;-72
2023/03/09 11:07:23;;;;;;;3.60;1.40;;;18.50;98.00;;;;;;4986825;28;20469;-72
2023/03/09 11:09:52;;;;;;;3.33;1.47;;;18.50;98.00;;;;;;4990002;28;20488;-72
2023/03/09 11:12:24;;;;;;;3.07;1.13;;;18.50;97.60;;;;;;4989671;28;20494;-71
2023/03/09 11:14:53;;;;;;;2.60;1.10;;;18.80;97.10;;;;;;4989875;28;20569;-71
2023/03/09 11:17:34;;;;;;;3.17;1.30;;;18.90;97.00;;;;;;4993859;28;20466;-72
2023/03/09 11:20:30;;;;;;;3.30;1.70;;;19.60;95.90;;;;;;4995689;28;20493;-72
2023/03/09 11:23:12;;;;;;;5.87;1.20;;;19.70;96.10;;;;;;4972241;28;20854;-72
2023/03/09 11:25:54;;;;;;;1.57;1.10;;;19.40;95.80;;;;;;4974648;28;20463;-72
2023/03/09 11:28:30;;;;;;;5.57;1.23;;;19.80;95.00;;;;;;4974589;28;20565;-72
2023/03/09 11:30:58;;;;;;;2.50;1.10;;;19.90;94.40;;;;;;4974782;28;20490;-72
2023/03/09 11:33:26;;;;;;;1.83;1.10;;;19.20;95.10;;;;;;4974487;28;20489;-72
2023/03/09 11:35:54;;;;;;;2.63;1.00;;;19.70;94.70;;;;;;4975001;28;20486;-72
2023/03/09 11:38:25;;;;;;;2.10;1.10;;;19.20;95.10;;;;;;4976089;28;20530;-73
2023/03/09 11:41:06;;;;;;;2.80;1.30;;;19.00;95.70;;;;;;4981706;28;20586;-72
2023/03/09 11:43:38;;;;;;;2.57;1.50;;;18.70;94.60;;;;;;4981203;28;20486;-72
2023/03/09 11:46:09;;;;;;;1.50;1.20;;;19.10;94.60;;;;;;4980374;28;20910;-72
2023/03/09 11:48:41;;;;;;;2.70;1.23;;;18.60;95.00;;;;;;4980147;28;20997;-74
2023/03/09 11:51:12;;;;;;;1.93;1.00;;;17.60;96.00;;;;;;4976328;28;20831;-75
2023/03/09 11:53:44;;;;;;;2.20;1.90;;;16.70;96.90;;;;;;4975981;28;20518;-74
2023/03/09 11:56:17;;;;;;;3.17;1.23;;;16.40;97.30;;;;;;4973063;28;20466;-75
2023/03/09 11:58:49;;;;;;;2.97;1.90;;;16.60;97.20;;;;;;4974752;28;20467;-74
2023/03/09 12:01:24;;;;;;;2.40;1.37;;;16.90;97.40;;;;;;4974473;28;20981;-74
2023/03/09 12:03:59;;;;;;;1.50;1.10;;;17.40;97.50;;;;;;4974448;28;20488;-74
2023/03/09 12:06:42;;;;;;;1.73;1.00;;;17.50;96.70;;;;;;4974488;28;20541;-74
2023/03/09 12:09:23;;;;;;;1.37;1.20;;;16.90;97.10;;;;;;4973356;28;20529;-74
2023/03/09 12:11:53;;;;;;;4.40;1.67;;;16.60;97.50;;;;;;4974717;28;20467;-74
2023/03/09 12:14:23;;;;;;;2.20;1.03;;;16.30;97.30;;;;;;4976190;28;20482;-73
2023/03/09 12:16:54;;;;;;;1.40;1.00;;;15.90;98.10;;;;;;4979182;28;20876;-75
2023/03/09 12:19:23;;;;;;;2.20;1.30;;;16.00;98.10;;;;;;4981864;28;20491;-75
2023/03/09 12:22:02;;;;;;;1.77;1.67;;;16.20;98.40;;;;;;4984190;28;20487;-74
2023/03/09 12:24:34;;;;;;;3.43;1.90;;;15.90;98.40;;;;;;4984116;28;20482;-76
2023/03/09 12:27:05;;;;;;;2.27;1.10;;;15.20;98.90;;;;;;4987545;28;20950;-75
2023/03/09 12:29:36;;;;;;;4.20;1.00;;;15.30;99.60;;;;;;4995727;28;20504;-74
2023/03/09 12:32:20;;;;;;;2.03;0.90;;;15.80;99.70;;;;;;4995920;28;20466;-74
2023/03/09 12:34:48;;;;;;;1.50;0.93;;;16.70;98.50;;;;;;4988582;28;20491;-76
2023/03/09 12:37:58;;;;;;;3.43;1.70;;;17.20;97.70;;;;;;4976365;28;20463;-76
2023/03/09 12:40:35;;;;;;;1.30;1.20;;;17.90;96.70;;;;;;4995032;28;20473;-76
2023/03/09 12:43:42;;;;;;;2.70;1.20;;;17.90;96.40;;;;;;4995387;28;20473;-76
2023/03/09 12:46:52;;;;;;;1.57;0.97;;;17.80;95.80;;;;;;4994679;28;20462;-76
2023/03/09 12:49:21;;;;;;;2.50;1.20;;;17.30;96.40;;;;;;4996028;28;20514;-76
2023/03/09 12:52:16;;;;;;;2.53;0.90;;;16.00;97.30;;;;;;4996558;28;20454;-76
2023/03/09 12:54:43;;;;;;;3.10;1.10;;;15.50;97.80;;;;;;4995971;28;20485;-76
2023/03/09 12:57:19;;;;;;;2.80;1.53;;;15.20;98.30;;;;;;4996073;28;20467;-76
2023/03/09 12:59:48;;;;;;;2.50;0.90;;;14.70;98.60;;;;;;4996306;28;20461;-76
2023/03/09 13:02:27;;;;;;;5.37;1.10;;;14.40;98.90;;;;;;4978784;28;20506;-76
2023/03/09 13:05:29;;;;;;;1.53;0.97;;;14.10;99.30;;;;;;4976395;28;20483;-75